sensor_id;sensor_type;location;lat;lon;timestamp;pressure;altitude;pressure_sealevel;temperature;humidity
13705;BME280;6924;52.122;9.952;2023-02-25T00:01:14;98933.66;;;2.55;100.00
13705;BME280;6924;52.122;9.952;2023-02-25T00:03:41;98938.19;;;2.51;100.00
13705;BME280;6924;52.122;9.952;2023-02-25T00:06:11;98940.16;;;2.51;100.00
13705;BME280;6924;52.122;9.952;2023-02-25T00:08:38;98946.28;;;2.53;100.00
13705;BME280;6924;52.122;9.952;2023-02-25T00:11:05;98954.88;;;2.56;100.00
13705;BME280;6924;52.122;9.952;2023-02-25T00:13:32;98943.09;;;2.59;100.00
13705;BME280;6924;52.122;9.952;2023-02-25T00:16:01;98941.47;;;2.58;100.00
13705;BME280;6924;52.122;9.952;2023-02-25T00:18:29;98950.75;;;2.54;100.00
13705;BME280;6924;52.122;9.952;2023-02-25T00:20:56;98959.31;;;2.57;100.00
13705;BME280;6924;52.122;9.952;2023-02-25T00:23:24;98953.75;;;2.57;100.00
13705;BME280;6924;52.122;9.952;2023-02-25T00:25:57;98948.69;;;2.59;100.00
13705;BME280;6924;52.122;9.952;2023-02-25T00:28:23;98960.69;;;2.60;100.00
13705;BME280;6924;52.122;9.952;2023-02-25T00:30:50;98955.41;;;2.58;100.00
13705;BME280;6924;52.122;9.952;2023-02-25T00:33:16;98957.34;;;2.58;100.00
13705;BME280;6924;52.122;9.952;2023-02-25T00:35:42;98967.16;;;2.55;100.00
13705;BME280;6924;52.122;9.952;2023-02-25T00:38:09;98957.97;;;2.55;100.00
13705;BME280;6924;52.122;9.952;2023-02-25T00:40:38;98965.72;;;2.58;100.00
13705;BME280;6924;52.122;9.952;2023-02-25T00:43:05;98969.28;;;2.63;100.00
13705;BME280;6924;52.122;9.952;2023-02-25T00:45:31;98971.25;;;2.63;100.00
13705;BME280;6924;52.122;9.952;2023-02-25T00:47:58;98964.25;;;2.65;100.00
13705;BME280;6924;52.122;9.952;2023-02-25T00:50:25;98959.47;;;2.66;100.00
13705;BME280;6924;52.122;9.952;2023-02-25T00:52:51;98965.34;;;2.64;100.00
13705;BME280;6924;52.122;9.952;2023-02-25T00:55:18;98961.44;;;2.65;100.00
13705;BME280;6924;52.122;9.952;2023-02-25T00:57:45;98971.25;;;2.63;100.00
13705;BME280;6924;52.122;9.952;2023-02-25T01:00:12;98960.28;;;2.66;100.00
13705;BME280;6924;52.122;9.952;2023-02-25T01:02:41;98967.31;;;2.64;100.00
13705;BME280;6924;52.122;9.952;2023-02-25T01:05:09;98967.94;;;2.61;100.00
13705;BME280;6924;52.122;9.952;2023-02-25T01:07:35;98972.38;;;2.62;100.00
13705;BME280;6924;52.122;9.952;2023-02-25T01:10:02;98967.41;;;2.59;100.00
13705;BME280;6924;52.122;9.952;2023-02-25T01:12:29;98965.19;;;2.56;100.00
13705;BME280;6924;52.122;9.952;2023-02-25T01:14:57;98960.16;;;2.58;100.00
13705;BME280;6924;52.122;9.952;2023-02-25T01:17:23;98970.72;;;2.61;100.00
13705;BME280;6924;52.122;9.952;2023-02-25T01:19:50;98975.50;;;2.60;100.00
13705;BME280;6924;52.122;9.952;2023-02-25T01:22:16;98968.75;;;2.61;100.00
13705;BME280;6924;52.122;9.952;2023-02-25T01:24:43;98974.88;;;2.63;100.00
13705;BME280;6924;52.122;9.952;2023-02-25T01:27:09;98981.28;;;2.64;100.00
13705;BME280;6924;52.122;9.952;2023-02-25T01:29:37;98981.28;;;2.64;100.00
13705;BME280;6924;52.122;9.952;2023-02-25T01:32:07;98983.53;;;2.62;100.00
13705;BME280;6924;52.122;9.952;2023-02-25T01:34:34;98990.28;;;2.61;100.00
13705;BME280;6924;52.122;9.952;2023-02-25T01:37:01;98987.03;;;2.54;100.00
13705;BME280;6924;52.122;9.952;2023-02-25T01:39:28;98986.25;;;2.48;100.00
13705;BME280;6924;52.122;9.952;2023-02-25T01:42:01;98989.03;;;2.48;100.00
13705;BME280;6924;52.122;9.952;2023-02-25T01:44:29;98993.28;;;2.45;100.00
13705;BME280;6924;52.122;9.952;2023-02-25T01:46:56;98992.72;;;2.43;100.00
13705;BME280;6924;52.122;9.952;2023-02-25T01:49:26;98989.13;;;2.43;100.00
13705;BME280;6924;52.122;9.952;2023-02-25T01:51:59;98998.94;;;2.40;100.00
13705;BME280;6924;52.122;9.952;2023-02-25T01:54:27;98987.22;;;2.38;100.00
13705;BME280;6924;52.122;9.952;2023-02-25T01:56:54;98997.78;;;2.41;100.00
13705;BME280;6924;52.122;9.952;2023-02-25T01:59:24;99006.41;;;2.45;100.00
13705;BME280;6924;52.122;9.952;2023-02-25T02:01:51;99011.66;;;2.46;100.00
13705;BME280;6924;52.122;9.952;2023-02-25T02:04:18;99015.31;;;2.47;100.00
13705;BME280;6924;52.122;9.952;2023-02-25T02:06:48;99011.66;;;2.46;100.00
13705;BME280;6924;52.122;9.952;2023-02-25T02:09:18;99004.44;;;2.45;100.00
13705;BME280;6924;52.122;9.952;2023-02-25T02:11:45;99015.06;;;2.43;100.00
13705;BME280;6924;52.122;9.952;2023-02-25T02:14:13;99028.72;;;2.45;100.00
13705;BME280;6924;52.122;9.952;2023-02-25T02:16:54;99020.28;;;2.50;100.00
13705;BME280;6924;52.122;9.952;2023-02-25T02:19:31;99019.97;;;2.52;100.00
13705;BME280;6924;52.122;9.952;2023-02-25T02:22:07;99022.25;;;2.50;100.00
13705;BME280;6924;52.122;9.952;2023-02-25T02:30:50;99019.13;;;2.51;100.00
13705;BME280;6924;52.122;9.952;2023-02-25T02:33:29;99026.97;;;2.49;100.00
13705;BME280;6924;52.122;9.952;2023-02-25T02:36:04;99032.88;;;2.47;100.00
13705;BME280;6924;52.122;9.952;2023-02-25T02:38:36;99047.41;;;2.44;100.00
13705;BME280;6924;52.122;9.952;2023-02-25T02:41:09;99044.03;;;2.47;100.00
13705;BME280;6924;52.122;9.952;2023-02-25T02:43:41;99047.03;;;2.51;100.00
13705;BME280;6924;52.122;9.952;2023-02-25T02:46:14;99045.69;;;2.48;100.00
13705;BME280;6924;52.122;9.952;2023-02-25T02:48:48;99052.09;;;2.49;100.00
13705;BME280;6924;52.122;9.952;2023-02-25T02:51:20;99056.56;;;2.50;100.00
13705;BME280;6924;52.122;9.952;2023-02-25T02:53:51;99052.94;;;2.50;100.00
13705;BME280;6924;52.122;9.952;2023-02-25T02:56:20;99056.56;;;2.50;99.71
13705;BME280;6924;52.122;9.952;2023-02-25T02:58:51;99054.59;;;2.51;99.71
13705;BME280;6924;52.122;9.952;2023-02-25T03:01:21;99064.94;;;2.50;99.48
13705;BME280;6924;52.122;9.952;2023-02-25T03:03:54;99079.19;;;2.48;98.17
13705;BME280;6924;52.122;9.952;2023-02-25T03:06:26;99076.72;;;2.47;98.02
13705;BME280;6924;52.122;9.952;2023-02-25T03:08:58;99068.63;;;2.45;99.46
13705;BME280;6924;52.122;9.952;2023-02-25T03:11:27;99086.78;;;2.43;98.26
13705;BME280;6924;52.122;9.952;2023-02-25T03:13:53;99083.16;;;2.42;98.13
13705;BME280;6924;52.122;9.952;2023-02-25T03:16:24;99083.75;;;2.39;97.99
13705;BME280;6924;52.122;9.952;2023-02-25T03:18:58;99088.50;;;2.39;97.53
13705;BME280;6924;52.122;9.952;2023-02-25T03:21:43;99078.19;;;2.39;97.38
13705;BME280;6924;52.122;9.952;2023-02-25T03:24:14;99078.19;;;2.39;95.93
13705;BME280;6924;52.122;9.952;2023-02-25T03:26:47;99090.47;;;2.38;96.64
13705;BME280;6924;52.122;9.952;2023-02-25T03:29:16;99089.09;;;2.36;97.51
13705;BME280;6924;52.122;9.952;2023-02-25T03:31:46;99090.22;;;2.35;98.29
13705;BME280;6924;52.122;9.952;2023-02-25T03:34:20;99092.47;;;2.33;98.60
13705;BME280;6924;52.122;9.952;2023-02-25T03:36:51;99099.22;;;2.32;98.63
13705;BME280;6924;52.122;9.952;2023-02-25T03:39:23;99097.25;;;2.32;97.30
13705;BME280;6924;52.122;9.952;2023-02-25T03:41:54;99106.16;;;2.34;97.70
13705;BME280;6924;52.122;9.952;2023-02-25T03:44:24;99105.63;;;2.32;97.41
13705;BME280;6924;52.122;9.952;2023-02-25T03:46:52;99109.75;;;2.35;96.68
13705;BME280;6924;52.122;9.952;2023-02-25T03:49:24;99117.31;;;2.34;95.92
13705;BME280;6924;52.122;9.952;2023-02-25T03:51:54;99126.22;;;2.36;95.76
13705;BME280;6924;52.122;9.952;2023-02-25T03:54:21;99134.59;;;2.36;95.76
13705;BME280;6924;52.122;9.952;2023-02-25T03:56:50;99133.44;;;2.37;95.73
13705;BME280;6924;52.122;9.952;2023-02-25T03:59:17;99133.44;;;2.37;96.10
13705;BME280;6924;52.122;9.952;2023-02-25T04:01:46;99139.31;;;2.36;95.84
13705;BME280;6924;52.122;9.952;2023-02-25T04:04:13;99140.16;;;2.36;97.27
13705;BME280;6924;52.122;9.952;2023-02-25T04:06:41;99149.13;;;2.33;97.11
13705;BME280;6924;52.122;9.952;2023-02-25T04:09:08;99145.22;;;2.34;97.07
13705;BME280;6924;52.122;9.952;2023-02-25T04:11:34;99140.75;;;2.33;96.93
13705;BME280;6924;52.122;9.952;2023-02-25T04:14:00;99150.78;;;2.34;97.58
13705;BME280;6924;52.122;9.952;2023-02-25T04:16:27;99155.22;;;2.35;98.35
13705;BME280;6924;52.122;9.952;2023-02-25T04:18:53;99175.38;;;2.32;98.92
13705;BME280;6924;52.122;9.952;2023-02-25T04:21:25;99156.94;;;2.31;99.74
13705;BME280;6924;52.122;9.952;2023-02-25T04:23:54;99160.88;;;2.30;99.95
13705;BME280;6924;52.122;9.952;2023-02-25T04:26:20;99156.13;;;2.31;100.00
13705;BME280;6924;52.122;9.952;2023-02-25T04:28:47;99154.47;;;2.30;100.00
13705;BME280;6924;52.122;9.952;2023-02-25T04:31:13;99160.34;;;2.28;100.00
13705;BME280;6924;52.122;9.952;2023-02-25T04:33:39;99160.09;;;2.24;100.00
13705;BME280;6924;52.122;9.952;2023-02-25T04:36:21;99167.09;;;2.22;99.87
13705;BME280;6924;52.122;9.952;2023-02-25T04:38:48;99168.78;;;2.23;98.84
13705;BME280;6924;52.122;9.952;2023-02-25T04:41:15;99171.25;;;2.24;98.85
13705;BME280;6924;52.122;9.952;2023-02-25T04:43:42;99171.56;;;2.23;100.00
13705;BME280;6924;52.122;9.952;2023-02-25T04:46:09;99166.25;;;2.21;99.92
13705;BME280;6924;52.122;9.952;2023-02-25T04:48:36;99178.25;;;2.22;100.00
13705;BME280;6924;52.122;9.952;2023-02-25T04:51:04;99184.44;;;2.19;100.00
13705;BME280;6924;52.122;9.952;2023-02-25T04:53:30;99186.91;;;2.20;100.00
13705;BME280;6924;52.122;9.952;2023-02-25T04:56:01;99184.97;;;2.21;100.00
13705;BME280;6924;52.122;9.952;2023-02-25T04:58:29;99187.50;;;2.17;100.00
13705;BME280;6924;52.122;9.952;2023-02-25T05:00:58;99191.13;;;2.18;100.00
13705;BME280;6924;52.122;9.952;2023-02-25T05:03:24;99193.69;;;2.14;100.00
13705;BME280;6924;52.122;9.952;2023-02-25T05:05:51;99190.34;;;2.12;100.00
13705;BME280;6924;52.122;9.952;2023-02-25T05:08:17;99183.63;;;2.13;100.00
13705;BME280;6924;52.122;9.952;2023-02-25T05:10:44;99185.06;;;2.11;100.00
13705;BME280;6924;52.122;9.952;2023-02-25T05:13:11;99188.38;;;2.13;100.00
13705;BME280;6924;52.122;9.952;2023-02-25T05:15:39;99187.28;;;2.09;100.00
13705;BME280;6924;52.122;9.952;2023-02-25T05:18:06;99195.13;;;2.06;100.00
13705;BME280;6924;52.122;9.952;2023-02-25T05:20:33;99183.75;;;2.03;99.85
13705;BME280;6924;52.122;9.952;2023-02-25T05:22:59;99190.44;;;2.02;98.79
13705;BME280;6924;52.122;9.952;2023-02-25T05:25:25;99190.72;;;2.00;98.41
13705;BME280;6924;52.122;9.952;2023-02-25T05:27:52;99199.94;;;2.01;96.22
13705;BME280;6924;52.122;9.952;2023-02-25T05:30:18;99192.38;;;2.01;95.52
13705;BME280;6924;52.122;9.952;2023-02-25T05:32:47;99195.47;;;2.00;95.74
13705;BME280;6924;52.122;9.952;2023-02-25T05:35:13;99192.66;;;2.00;95.56
13705;BME280;6924;52.122;9.952;2023-02-25T05:37:39;99203.81;;;2.00;97.18
13705;BME280;6924;52.122;9.952;2023-02-25T05:40:07;99198.03;;;1.96;97.32
13705;BME280;6924;52.122;9.952;2023-02-25T05:42:34;99200.81;;;1.96;99.20
13705;BME280;6924;52.122;9.952;2023-02-25T05:45:02;99199.38;;;1.99;99.67
13705;BME280;6924;52.122;9.952;2023-02-25T05:47:28;99196.94;;;1.92;98.71
13705;BME280;6924;52.122;9.952;2023-02-25T05:49:56;99206.41;;;1.91;100.00
13705;BME280;6924;52.122;9.952;2023-02-25T05:52:22;99197.50;;;1.89;99.24
13705;BME280;6924;52.122;9.952;2023-02-25T05:54:49;99209.19;;;1.91;100.00
13705;BME280;6924;52.122;9.952;2023-02-25T05:57:15;99201.41;;;1.88;99.31
13705;BME280;6924;52.122;9.952;2023-02-25T05:59:42;99202.25;;;1.89;99.56
13705;BME280;6924;52.122;9.952;2023-02-25T06:02:09;99221.75;;;1.89;99.03
13705;BME280;6924;52.122;9.952;2023-02-25T06:04:35;99220.94;;;1.88;99.31
13705;BME280;6924;52.122;9.952;2023-02-25T06:07:03;99224.84;;;1.87;99.62
13705;BME280;6924;52.122;9.952;2023-02-25T06:09:29;99221.22;;;1.86;98.84
13705;BME280;6924;52.122;9.952;2023-02-25T06:11:59;99234.06;;;1.82;97.81
13705;BME280;6924;52.122;9.952;2023-02-25T06:14:25;99236.03;;;1.82;98.19
13705;BME280;6924;52.122;9.952;2023-02-25T06:16:52;99231.88;;;1.79;98.44
13705;BME280;6924;52.122;9.952;2023-02-25T06:19:21;99237.72;;;1.78;98.74
13705;BME280;6924;52.122;9.952;2023-02-25T06:21:47;99250.03;;;1.77;99.22
13705;BME280;6924;52.122;9.952;2023-02-25T06:24:15;99259.50;;;1.76;98.94
13705;BME280;6924;52.122;9.952;2023-02-25T06:26:41;99261.72;;;1.74;98.63
13705;BME280;6924;52.122;9.952;2023-02-25T06:29:08;99268.44;;;1.73;97.89
13705;BME280;6924;52.122;9.952;2023-02-25T06:31:35;99268.16;;;1.69;98.58
13705;BME280;6924;52.122;9.952;2023-02-25T06:34:01;99277.09;;;1.71;99.49
13705;BME280;6924;52.122;9.952;2023-02-25T06:36:29;99287.13;;;1.67;96.79
13705;BME280;6924;52.122;9.952;2023-02-25T06:38:56;99295.25;;;1.63;94.46
13705;BME280;6924;52.122;9.952;2023-02-25T06:41:24;99295.25;;;1.58;93.23
13705;BME280;6924;52.122;9.952;2023-02-25T06:43:50;99303.94;;;1.57;91.71
13705;BME280;6924;52.122;9.952;2023-02-25T06:46:19;99321.22;;;1.54;89.61
13705;BME280;6924;52.122;9.952;2023-02-25T06:48:45;99322.66;;;1.46;88.49
13705;BME280;6924;52.122;9.952;2023-02-25T06:51:12;99327.94;;;1.42;87.95
13705;BME280;6924;52.122;9.952;2023-02-25T06:53:41;99326.28;;;1.41;87.99
13705;BME280;6924;52.122;9.952;2023-02-25T06:56:09;99342.47;;;1.39;88.35
13705;BME280;6924;52.122;9.952;2023-02-25T06:58:38;99346.34;;;1.38;89.69
13705;BME280;6924;52.122;9.952;2023-02-25T07:01:05;99349.97;;;1.39;89.88
13705;BME280;6924;52.122;9.952;2023-02-25T07:03:32;99358.03;;;1.40;90.81
13705;BME280;6924;52.122;9.952;2023-02-25T07:05:58;99357.81;;;1.37;91.11
13705;BME280;6924;52.122;9.952;2023-02-25T07:08:25;99360.59;;;1.37;90.63
13705;BME280;6924;52.122;9.952;2023-02-25T07:10:51;99348.34;;;1.33;90.82
13705;BME280;6924;52.122;9.952;2023-02-25T07:13:18;99348.03;;;1.34;91.41
13705;BME280;6924;52.122;9.952;2023-02-25T07:15:45;99365.59;;;1.35;89.55
13705;BME280;6924;52.122;9.952;2023-02-25T07:18:12;99372.28;;;1.34;88.82
13705;BME280;6924;52.122;9.952;2023-02-25T07:20:40;99369.75;;;1.32;89.41
13705;BME280;6924;52.122;9.952;2023-02-25T07:23:06;99366.97;;;1.32;88.79
13705;BME280;6924;52.122;9.952;2023-02-25T07:25:33;99373.41;;;1.33;88.77
13705;BME280;6924;52.122;9.952;2023-02-25T07:27:59;99377.56;;;1.35;89.12
13705;BME280;6924;52.122;9.952;2023-02-25T07:30:25;99382.88;;;1.37;89.78
13705;BME280;6924;52.122;9.952;2023-02-25T07:32:53;99379.53;;;1.35;88.93
13705;BME280;6924;52.122;9.952;2023-02-25T07:35:21;99394.03;;;1.37;89.15
13705;BME280;6924;52.122;9.952;2023-02-25T07:37:47;99392.06;;;1.37;89.19
13705;BME280;6924;52.122;9.952;2023-02-25T07:40:13;99395.66;;;1.38;88.28
13705;BME280;6924;52.122;9.952;2023-02-25T07:42:41;99394.53;;;1.39;87.62
13705;BME280;6924;52.122;9.952;2023-02-25T07:45:09;99397.34;;;1.44;88.61
13705;BME280;6924;52.122;9.952;2023-02-25T07:47:35;99410.13;;;1.45;87.61
13705;BME280;6924;52.122;9.952;2023-02-25T07:50:04;99413.47;;;1.47;87.53
13705;BME280;6924;52.122;9.952;2023-02-25T07:52:31;99416.25;;;1.47;87.60
13705;BME280;6924;52.122;9.952;2023-02-25T07:54:58;99416.25;;;1.47;88.58
13705;BME280;6924;52.122;9.952;2023-02-25T07:57:24;99422.97;;;1.46;87.79
13705;BME280;6924;52.122;9.952;2023-02-25T07:59:50;99421.00;;;1.47;88.23
13705;BME280;6924;52.122;9.952;2023-02-25T08:02:17;99422.97;;;1.46;87.69
13705;BME280;6924;52.122;9.952;2023-02-25T08:04:43;99431.03;;;1.48;88.36
13705;BME280;6924;52.122;9.952;2023-02-25T08:07:11;99433.81;;;1.48;87.94
13705;BME280;6924;52.122;9.952;2023-02-25T08:09:38;99430.47;;;1.51;87.08
13705;BME280;6924;52.122;9.952;2023-02-25T08:12:06;99430.72;;;1.54;89.02
13705;BME280;6924;52.122;9.952;2023-02-25T08:14:32;99431.28;;;1.61;89.58
13705;BME280;6924;52.122;9.952;2023-02-25T08:16:59;99434.88;;;1.67;87.60
13705;BME280;6924;52.122;9.952;2023-02-25T08:19:26;99433.75;;;1.73;86.71
13705;BME280;6924;52.122;9.952;2023-02-25T08:21:53;99437.38;;;1.79;85.65
13705;BME280;6924;52.122;9.952;2023-02-25T08:24:21;99432.84;;;1.83;84.72
13705;BME280;6924;52.122;9.952;2023-02-25T08:26:48;99431.75;;;1.84;83.70
13705;BME280;6924;52.122;9.952;2023-02-25T08:29:14;99438.44;;;1.88;83.45
13705;BME280;6924;52.122;9.952;2023-02-25T08:31:41;99429.19;;;1.98;82.79
13705;BME280;6924;52.122;9.952;2023-02-25T08:34:07;99419.41;;;2.05;81.73
13705;BME280;6924;52.122;9.952;2023-02-25T08:36:34;99428.03;;;2.04;81.08
13705;BME280;6924;52.122;9.952;2023-02-25T08:39:01;99424.19;;;1.95;79.97
13705;BME280;6924;52.122;9.952;2023-02-25T08:41:29;99425.53;;;2.02;79.51
13705;BME280;6924;52.122;9.952;2023-02-25T08:43:56;99431.66;;;2.10;79.04
13705;BME280;6924;52.122;9.952;2023-02-25T08:46:26;99441.66;;;2.16;78.99
13705;BME280;6924;52.122;9.952;2023-02-25T08:48:53;99427.09;;;2.24;77.38
13705;BME280;6924;52.122;9.952;2023-02-25T08:51:21;99424.25;;;2.34;79.39
13705;BME280;6924;52.122;9.952;2023-02-25T08:53:48;99433.41;;;2.45;77.86
13705;BME280;6924;52.122;9.952;2023-02-25T08:56:15;99427.25;;;2.48;77.78
13705;BME280;6924;52.122;9.952;2023-02-25T08:58:43;99430.84;;;2.54;75.76
13705;BME280;6924;52.122;9.952;2023-02-25T09:01:12;99424.94;;;2.60;76.37
13705;BME280;6924;52.122;9.952;2023-02-25T09:03:39;99433.00;;;2.62;75.03
13705;BME280;6924;52.122;9.952;2023-02-25T09:06:17;99450.84;;;2.66;73.84
13705;BME280;6924;52.122;9.952;2023-02-25T09:08:44;99451.53;;;2.47;72.93
13705;BME280;6924;52.122;9.952;2023-02-25T09:11:10;99442.31;;;2.47;72.71
13705;BME280;6924;52.122;9.952;2023-02-25T09:13:37;99458.56;;;2.35;71.77
13705;BME280;6924;52.122;9.952;2023-02-25T09:16:05;99456.88;;;2.34;72.24
13705;BME280;6924;52.122;9.952;2023-02-25T09:18:32;99455.81;;;2.30;72.19
13705;BME280;6924;52.122;9.952;2023-02-25T09:20:58;99458.03;;;2.33;72.89
13705;BME280;6924;52.122;9.952;2023-02-25T09:23:25;99465.53;;;2.37;72.67
13705;BME280;6924;52.122;9.952;2023-02-25T09:25:52;99467.47;;;2.42;72.39
13705;BME280;6924;52.122;9.952;2023-02-25T09:28:18;99471.25;;;2.61;73.48
13705;BME280;6924;52.122;9.952;2023-02-25T09:30:44;99471.53;;;2.65;73.06
13705;BME280;6924;52.122;9.952;2023-02-25T09:33:13;99471.97;;;2.77;72.63
13705;BME280;6924;52.122;9.952;2023-02-25T09:35:39;99473.41;;;2.75;71.63
13705;BME280;6924;52.122;9.952;2023-02-25T09:38:06;99470.34;;;2.71;73.82
13705;BME280;6924;52.122;9.952;2023-02-25T09:40:33;99473.78;;;2.63;72.75
13705;BME280;6924;52.122;9.952;2023-02-25T09:43:06;99485.47;;;2.65;72.10
13705;BME280;6924;52.122;9.952;2023-02-25T09:45:34;99489.97;;;2.61;72.18
13705;BME280;6924;52.122;9.952;2023-02-25T09:48:04;99502.84;;;2.57;72.72
13705;BME280;6924;52.122;9.952;2023-02-25T09:50:37;99498.75;;;2.39;69.88
13705;BME280;6924;52.122;9.952;2023-02-25T09:53:11;99505.75;;;2.31;70.10
13705;BME280;6924;52.122;9.952;2023-02-25T09:55:41;99512.50;;;2.20;71.28
13705;BME280;6924;52.122;9.952;2023-02-25T09:58:16;99515.84;;;2.22;72.16
13705;BME280;6924;52.122;9.952;2023-02-25T10:00:49;99514.47;;;2.09;71.78
13705;BME280;6924;52.122;9.952;2023-02-25T10:03:23;99517.59;;;1.97;73.83
13705;BME280;6924;52.122;9.952;2023-02-25T10:05:56;99520.41;;;1.92;75.21
13705;BME280;6924;52.122;9.952;2023-02-25T10:08:29;99526.00;;;1.92;76.08
13705;BME280;6924;52.122;9.952;2023-02-25T10:11:01;99529.59;;;1.93;76.11
13705;BME280;6924;52.122;9.952;2023-02-25T10:13:39;99539.34;;;1.95;75.51
13705;BME280;6924;52.122;9.952;2023-02-25T10:16:20;99539.34;;;2.05;75.84
13705;BME280;6924;52.122;9.952;2023-02-25T10:18:57;99547.72;;;2.05;75.20
13705;BME280;6924;52.122;9.952;2023-02-25T10:21:36;99547.72;;;2.05;76.13
13705;BME280;6924;52.122;9.952;2023-02-25T10:24:15;99562.50;;;2.01;77.29
13705;BME280;6924;52.122;9.952;2023-02-25T10:26:46;99573.41;;;1.92;78.57
13705;BME280;6924;52.122;9.952;2023-02-25T10:29:20;99572.00;;;1.84;80.15
13705;BME280;6924;52.122;9.952;2023-02-25T10:31:48;99572.00;;;1.95;78.94
13705;BME280;6924;52.122;9.952;2023-02-25T10:34:20;99569.47;;;1.93;78.47
13705;BME280;6924;52.122;9.952;2023-02-25T10:36:53;99570.31;;;1.99;79.53
13705;BME280;6924;52.122;9.952;2023-02-25T10:39:20;99573.63;;;2.11;80.12
13705;BME280;6924;52.122;9.952;2023-02-25T10:41:47;99583.06;;;2.20;80.03
13705;BME280;6924;52.122;9.952;2023-02-25T10:44:14;99586.41;;;2.22;78.96
13705;BME280;6924;52.122;9.952;2023-02-25T10:46:46;99592.03;;;2.07;78.80
13705;BME280;6924;52.122;9.952;2023-02-25T10:49:14;99591.78;;;2.03;79.95
13705;BME280;6924;52.122;9.952;2023-02-25T10:51:57;99593.16;;;2.06;81.53
13705;BME280;6924;52.122;9.952;2023-02-25T10:54:27;99607.97;;;2.01;81.33
13705;BME280;6924;52.122;9.952;2023-02-25T10:56:54;99598.75;;;2.06;81.13
13705;BME280;6924;52.122;9.952;2023-02-25T10:59:27;99597.91;;;2.05;79.03
13705;BME280;6924;52.122;9.952;2023-02-25T11:01:54;99595.13;;;2.00;78.84
13705;BME280;6924;52.122;9.952;2023-02-25T11:04:24;99613.00;;;1.94;80.87
13705;BME280;6924;52.122;9.952;2023-02-25T11:06:53;99616.63;;;1.84;81.34
13705;BME280;6924;52.122;9.952;2023-02-25T11:09:31;99619.41;;;1.84;81.74
13705;BME280;6924;52.122;9.952;2023-02-25T11:12:07;99616.88;;;1.93;82.38
13705;BME280;6924;52.122;9.952;2023-02-25T11:14:36;99619.94;;;2.02;80.73
13705;BME280;6924;52.122;9.952;2023-02-25T11:17:05;99610.72;;;2.12;80.48
13705;BME280;6924;52.122;9.952;2023-02-25T11:19:36;99615.72;;;2.25;80.34
13705;BME280;6924;52.122;9.952;2023-02-25T11:22:08;99623.22;;;2.35;80.54
13705;BME280;6924;52.122;9.952;2023-02-25T11:24:37;99616.56;;;2.20;79.09
13705;BME280;6924;52.122;9.952;2023-02-25T11:27:06;99619.66;;;2.19;79.27
13705;BME280;6924;52.122;9.952;2023-02-25T11:29:35;99622.69;;;2.27;80.14
13705;BME280;6924;52.122;9.952;2023-02-25T11:32:08;99630.84;;;2.03;82.68
13705;BME280;6924;52.122;9.952;2023-02-25T11:34:44;99634.44;;;2.04;82.78
13705;BME280;6924;52.122;9.952;2023-02-25T11:37:34;99636.13;;;2.10;83.89
13705;BME280;6924;52.122;9.952;2023-02-25T11:40:19;99638.91;;;2.10;82.21
13705;BME280;6924;52.122;9.952;2023-02-25T11:43:09;99639.72;;;2.21;81.86
13705;BME280;6924;52.122;9.952;2023-02-25T11:45:48;99646.69;;;2.28;79.87
13705;BME280;6924;52.122;9.952;2023-02-25T11:48:17;99633.56;;;2.34;79.57
13705;BME280;6924;52.122;9.952;2023-02-25T11:50:52;99638.03;;;2.40;79.05
13705;BME280;6924;52.122;9.952;2023-02-25T11:53:30;99638.25;;;2.44;78.36
13705;BME280;6924;52.122;9.952;2023-02-25T11:56:05;99648.53;;;2.64;76.74
13705;BME280;6924;52.122;9.952;2023-02-25T11:58:46;99645.19;;;2.62;74.90
13705;BME280;6924;52.122;9.952;2023-02-25T12:01:20;99641.34;;;2.47;73.30
13705;BME280;6924;52.122;9.952;2023-02-25T12:04:33;99645.22;;;2.46;74.09
13705;BME280;6924;52.122;9.952;2023-02-25T12:07:34;99649.16;;;2.45;78.19
13705;BME280;6924;52.122;9.952;2023-02-25T12:10:24;99645.78;;;2.48;77.55
13705;BME280;6924;52.122;9.952;2023-02-25T12:13:16;99664.78;;;2.41;72.57
13705;BME280;6924;52.122;9.952;2023-02-25T12:16:17;99664.78;;;2.46;72.19
13705;BME280;6924;52.122;9.952;2023-02-25T12:22:19;99670.13;;;2.33;69.09
13705;BME280;6924;52.122;9.952;2023-02-25T12:25:03;99661.72;;;2.43;70.98
13705;BME280;6924;52.122;9.952;2023-02-25T12:28:02;99667.84;;;2.40;72.87
13705;BME280;6924;52.122;9.952;2023-02-25T12:33:55;99678.78;;;2.16;75.77
13705;BME280;6924;52.122;9.952;2023-02-25T12:36:39;99697.75;;;2.09;76.49
13705;BME280;6924;52.122;9.952;2023-02-25T12:39:30;99694.44;;;1.96;76.63
13705;BME280;6924;52.122;9.952;2023-02-25T12:42:09;99706.97;;;1.94;76.24
13705;BME280;6924;52.122;9.952;2023-02-25T12:45:02;99704.19;;;1.94;75.73
13705;BME280;6924;52.122;9.952;2023-02-25T12:47:50;99718.41;;;1.82;76.03
13705;BME280;6924;52.122;9.952;2023-02-25T12:50:30;99712.53;;;1.73;76.61
13705;BME280;6924;52.122;9.952;2023-02-25T12:53:17;99713.66;;;1.77;77.59
13705;BME280;6924;52.122;9.952;2023-02-25T12:56:14;99713.94;;;1.76;77.84
13705;BME280;6924;52.122;9.952;2023-02-25T13:01:54;99718.41;;;1.82;76.43
13705;BME280;6924;52.122;9.952;2023-02-25T13:04:42;99717.84;;;1.85;77.05
13705;BME280;6924;52.122;9.952;2023-02-25T13:07:47;99715.59;;;1.87;76.26
13705;BME280;6924;52.122;9.952;2023-02-25T13:10:38;99726.22;;;1.95;76.04
13705;BME280;6924;52.122;9.952;2023-02-25T13:13:29;99730.41;;;2.08;76.24
13705;BME280;6924;52.122;9.952;2023-02-25T13:16:14;99731.81;;;2.11;75.08
13705;BME280;6924;52.122;9.952;2023-02-25T13:18:47;99734.31;;;2.07;73.96
13705;BME280;6924;52.122;9.952;2023-02-25T13:21:34;99739.59;;;2.09;73.63
13705;BME280;6924;52.122;9.952;2023-02-25T13:24:18;99746.31;;;2.08;72.14
13705;BME280;6924;52.122;9.952;2023-02-25T13:26:58;99743.53;;;2.08;72.92
13705;BME280;6924;52.122;9.952;2023-02-25T13:29:40;99749.66;;;2.15;71.33
13705;BME280;6924;52.122;9.952;2023-02-25T13:32:24;99739.06;;;2.22;70.62
13705;BME280;6924;52.122;9.952;2023-02-25T13:35:09;99742.41;;;2.19;70.78
13705;BME280;6924;52.122;9.952;2023-02-25T13:37:47;99750.75;;;2.29;71.02
13705;BME280;6924;52.122;9.952;2023-02-25T13:40:36;99758.84;;;2.20;69.42
13705;BME280;6924;52.122;9.952;2023-02-25T13:43:37;99761.66;;;2.15;67.84
13705;BME280;6924;52.122;9.952;2023-02-25T13:46:27;99767.25;;;2.25;69.35
13705;BME280;6924;52.122;9.952;2023-02-25T13:49:13;99761.63;;;2.20;68.80
13705;BME280;6924;52.122;9.952;2023-02-25T13:52:20;99771.41;;;2.18;70.87
13705;BME280;6924;52.122;9.952;2023-02-25T13:58:16;99786.22;;;2.03;70.03
13705;BME280;6924;52.122;9.952;2023-02-25T14:01:10;99789.81;;;2.09;70.68